Wednesday, June 20, 2018, 10:47 AM EDT
Back to Local

KGON, Groton/new London Airport

Location: Groton, CT, United States Lat: 41.333
Local Time: 10:47 AM EDT (14:47 GMT) Lon: -72.05
Time Zone: US/Eastern Elev: 9 ft

Show me the last for .
Show Decoded

2018-06-20 09:56 METAR KGON 201356Z 19006KT 10SM CLR 21/13 A2990 RMK AO2 SLP124 T02110133 =
2018-06-20 08:56 METAR KGON 201256Z 01004KT 10SM CLR 21/13 A2990 RMK AO2 SLP124 T02110133 =
2018-06-20 07:56 METAR KGON 201156Z 01007KT 10SM CLR 19/12 A2991 RMK AO2 SLP129 T01890117 10194
                 20139 52008 =
2018-06-20 06:56 METAR KGON 201056Z 01005KT 10SM CLR 17/11 A2991 RMK AO2 SLP127 T01720106 =
2018-06-20 05:56 METAR KGON 200956Z AUTO 36004KT 10SM CLR 16/11 A2989 RMK AO2 SLP122 T01560111 =
2018-06-20 04:56 METAR KGON 200856Z AUTO 02005KT 10SM CLR 14/11 A2989 RMK AO2 SLP120 T01440106
                 53006 =
2018-06-20 03:56 METAR KGON 200756Z AUTO 01005KT 10SM CLR 16/11 A2987 RMK AO2 SLP116 T01610106 =
2018-06-20 02:56 METAR KGON 200656Z AUTO 01005KT 10SM CLR 17/11 A2987 RMK AO2 SLP115 T01670106 =
2018-06-20 01:56 METAR KGON 200556Z AUTO 36005KT 10SM CLR 17/11 A2987 RMK AO2 SLP114 T01670106
                 10261 20167 51004 =
2018-06-20 00:56 METAR KGON 200456Z AUTO 02005KT 10SM CLR 18/12 A2987 RMK AO2 SLP114 T01780117
                 403060172 =
2018-06-19 23:56 METAR KGON 200356Z AUTO 01005KT 10SM CLR 19/11 A2987 RMK AO2 SLP114 T01940111 =
2018-06-19 22:56 METAR KGON 200256Z AUTO 36006KT 10SM CLR 21/11 A2986 RMK AO2 SLP110 T02060106
                 51020 =
2018-06-19 21:56 METAR KGON 200156Z 36005KT 10SM CLR 22/11 A2985 RMK AO2 SLP108 T02170111 =
2018-06-19 20:56 METAR KGON 200056Z 36005KT 10SM CLR 23/14 A2982 RMK AO2 SLP096 T02280139 =
2018-06-19 19:56 METAR KGON 192356Z 01005KT 10SM CLR 26/12 A2980 RMK AO2 SLP090 T02610122 10306
                 20261 53014 =
2018-06-19 18:56 METAR KGON 192256Z 33009KT 10SM CLR 28/13 A2978 RMK AO2 SLP085 T02780128 =
2018-06-19 17:56 METAR KGON 192156Z 31009KT 10SM CLR 29/13 A2977 RMK AO2 SLP080 T02890128 =
2018-06-19 16:56 METAR KGON 192056Z 35010KT 10SM CLR 29/13 A2976 RMK AO2 SLP076 T02940128 53002 =
2018-06-19 15:56 METAR KGON 191956Z 34007KT 10SM CLR 30/13 A2975 RMK AO2 SLP075 T03000133 =
2018-06-19 14:56 METAR KGON 191856Z 32012KT 10SM CLR 30/14 A2975 RMK AO2 SLP074 T03000139 =
2018-06-19 13:56 METAR KGON 191756Z 35009G19KT 10SM CLR 29/14 A2975 RMK AO2 SLP074 T02940144
                 10300 20250 50003 =
2018-06-19 12:56 METAR KGON 191656Z 34008KT 10SM CLR 29/15 A2975 RMK AO2 SLP075 T02890150 =
2018-06-19 11:56 METAR KGON 191556Z 35011G19KT 310V020 10SM CLR 28/15 A2975 RMK AO2 SLP074
                 T02830150 =
2018-06-19 10:56 METAR KGON 191456Z 33013KT 10SM CLR 28/16 A2974 RMK AO2 SLP071 T02780161 51011 =

Support USWX by starting your Amazon purchase here.